McCausland, Iowa
Current Conditions -  °F | °C
As of 10:15 AM on Saturday 20 Dec 2014 (Local Time) from KCWI Reporting Station
Overcast Overcast  
Wind Chill: 23°   Ceiling: 3400
Heat Index: 30°   Visibility: 6mi
Dew Point: 23°   Wind: 7mph
Humidity: 75%   Direction: 150°SSE
Pressure: 30.29"   Gusts: NA
Location:  41.75°N, 90.44°W
Report Text: KCWI 201615Z AUTO 15006KT 6SM OVC034 M01/M05 A3029 RMK AO1
Loading
Personal Weather Stations






























Interactive Weather Map New forecast layout! Learn more

10-Day Weather Forecast

Advertisements
Track Severe Weather on mobile